Terminal Aerodrome Forecast
Issued by NWS Sterling, VA

Home | Current Version | Previous Version | Text Only | Print | Product List | Glossary On
Versions: 1 2 3 4 5 6 7 8 9 10 11 12 13 14
000
FTUS41 KLWX 311725
TAFMRB
TAF
KMRB 311725Z 3118/0118 19005KT P6SM VCTS SCT050CB BKN200
     FM010300 VRB03KT P6SM BKN080 BKN100
     FM010600 VRB03KT 3SM BR BKN070 BKN100
     FM011600 34006KT P6SM BKN015 BKN040
     FM011700 34006KT P6SM BKN030 BKN040=

USA.gov is the U.S. government's official web portal to all federal, state and local government web resources and services.